createdAt,value
2023-04-18T00:00:22.911Z,-360.00
2023-04-18T00:05:30.767Z,-360.00
2023-04-18T00:10:38.415Z,-396.00
2023-04-18T00:15:46.217Z,-360.00
2023-04-18T00:21:00.473Z,-324.00
2023-04-18T00:26:11.489Z,-360.00
2023-04-18T00:31:23.942Z,-396.00
2023-04-18T00:36:31.378Z,-396.00
2023-04-18T00:42:06.427Z,-360.00
2023-04-18T00:47:05.089Z,-396.00
2023-04-18T00:52:22.225Z,-360.00
2023-04-18T00:57:28.212Z,-360.00
2023-04-18T01:02:40.645Z,-360.00
2023-04-18T01:07:55.962Z,-360.00
2023-04-18T01:13:11.108Z,-396.00
2023-04-18T01:18:18.611Z,-360.00
2023-04-18T01:23:26.031Z,-396.00
2023-04-18T01:28:33.538Z,-396.00
2023-04-18T01:33:40.931Z,-360.00
2023-04-18T01:38:49.833Z,-360.00
2023-04-18T01:43:57.147Z,-396.00
2023-04-18T01:49:04.606Z,-396.00
2023-04-18T01:54:12.256Z,-360.00
2023-04-18T01:59:19.399Z,-360.00
2023-04-18T02:04:26.832Z,-360.00
2023-04-18T02:09:34.101Z,-360.00
2023-04-18T02:14:44.156Z,-360.00
2023-04-18T02:19:51.702Z,-396.00
2023-04-18T02:24:59.077Z,-360.00
2023-04-18T02:30:06.510Z,-396.00
2023-04-18T02:35:14.098Z,-360.00
2023-04-18T02:40:21.390Z,-360.00
2023-04-18T02:45:28.723Z,-360.00
2023-04-18T02:50:36.137Z,-360.00
2023-04-18T02:55:43.235Z,-360.00
2023-04-18T03:00:50.640Z,-360.00
2023-04-18T03:05:57.917Z,-396.00
2023-04-18T03:11:05.184Z,-360.00
2023-04-18T03:16:12.419Z,-396.00
2023-04-18T03:21:19.695Z,-396.00
2023-04-18T03:26:26.937Z,-360.00
2023-04-18T03:31:34.179Z,-360.00
2023-04-18T03:36:41.346Z,-360.00
2023-04-18T03:41:48.598Z,-360.00
2023-04-18T03:46:55.756Z,-396.00
2023-04-18T03:52:02.989Z,-360.00
2023-04-18T03:57:10.163Z,-360.00
2023-04-18T04:02:17.511Z,-360.00
2023-04-18T04:07:24.835Z,-360.00
2023-04-18T04:12:32.019Z,-360.00
2023-04-18T04:17:39.264Z,-360.00
2023-04-18T04:22:46.514Z,-396.00
2023-04-18T04:27:53.680Z,-360.00
2023-04-18T04:33:00.844Z,-324.00
2023-04-18T04:38:08.170Z,-360.00
2023-04-18T04:43:15.281Z,-324.00
2023-04-18T04:48:22.520Z,-252.00
2023-04-18T04:53:29.815Z,-252.00
2023-04-18T04:58:36.969Z,-216.00
2023-04-18T05:03:44.383Z,-144.00
2023-04-18T05:08:51.359Z,-108.00
2023-04-18T05:13:58.508Z,-72.00
2023-04-18T05:19:05.700Z,0.00
2023-04-18T05:24:13.512Z,0.00
2023-04-18T05:29:20.461Z,36.00
2023-04-18T05:34:27.674Z,36.00
2023-04-18T05:39:34.991Z,36.00
2023-04-18T05:44:42.121Z,36.00
2023-04-18T05:49:49.308Z,0.00
2023-04-18T05:54:56.509Z,-36.00
2023-04-18T06:00:03.684Z,36.00
2023-04-18T06:05:11.125Z,0.00
2023-04-18T06:10:18.078Z,-36.00
2023-04-18T06:15:25.213Z,-72.00
2023-04-18T06:20:32.429Z,-72.00
2023-04-18T06:25:39.678Z,0.00
2023-04-18T06:30:46.797Z,36.00
2023-04-18T06:35:53.984Z,36.00
2023-04-18T06:41:01.353Z,72.00
2023-04-18T06:46:08.385Z,36.00
2023-04-18T06:51:15.533Z,36.00
2023-04-18T06:56:22.754Z,36.00
2023-04-18T07:01:29.947Z,36.00
2023-04-18T07:06:37.085Z,72.00
2023-04-18T07:11:44.305Z,72.00
2023-04-18T07:16:51.482Z,36.00
2023-04-18T07:21:58.631Z,72.00
2023-04-18T07:27:05.908Z,72.00
2023-04-18T07:32:13.037Z,18648.00
2023-04-18T07:37:20.330Z,18108.00
2023-04-18T07:42:27.722Z,18432.00
2023-04-18T07:47:34.710Z,18864.00
2023-04-18T07:52:41.854Z,19152.00
2023-04-18T07:57:49.090Z,20448.00
2023-04-18T08:02:56.571Z,19224.00
2023-04-18T08:08:03.606Z,18936.00
2023-04-18T08:13:10.828Z,18792.00
2023-04-18T08:18:17.974Z,18540.00
2023-04-18T08:23:25.226Z,18864.00
2023-04-18T08:28:32.483Z,18504.00
2023-04-18T08:33:39.629Z,18360.00
2023-04-18T08:38:46.931Z,18360.00
2023-04-18T08:43:56.941Z,18324.00
2023-04-18T08:49:01.692Z,18432.00
2023-04-18T08:54:08.887Z,18468.00
2023-04-18T08:59:16.388Z,18252.00
2023-04-18T09:04:23.276Z,18072.00
2023-04-18T09:09:30.432Z,17964.00
2023-04-18T09:14:37.655Z,17424.00
2023-04-18T09:19:44.878Z,17820.00
2023-04-18T09:24:52.191Z,17856.00
2023-04-18T09:29:59.688Z,17604.00
2023-04-18T09:35:06.561Z,17748.00
2023-04-18T09:40:13.768Z,17784.00
2023-04-18T09:45:21.040Z,17676.00
2023-04-18T09:50:28.234Z,17640.00
2023-04-18T09:55:35.428Z,17532.00
2023-04-18T10:00:44.368Z,17748.00
2023-04-18T10:05:49.858Z,17784.00
2023-04-18T10:10:57.071Z,17820.00
2023-04-18T10:16:04.319Z,17532.00
2023-04-18T10:21:11.459Z,17460.00
2023-04-18T10:26:18.723Z,17496.00
2023-04-18T10:31:26.081Z,17460.00
2023-04-18T10:36:33.116Z,17424.00
2023-04-18T10:41:40.284Z,17316.00
2023-04-18T10:46:47.559Z,17388.00
2023-04-18T10:51:54.653Z,17316.00
2023-04-18T10:57:01.806Z,17532.00
2023-04-18T11:02:09.076Z,17388.00
2023-04-18T11:07:16.182Z,17388.00
2023-04-18T11:12:23.376Z,17532.00
2023-04-18T11:17:30.626Z,17964.00
2023-04-18T11:22:37.857Z,19800.00
2023-04-18T11:27:45.075Z,17820.00
2023-04-18T11:32:52.363Z,17676.00
2023-04-18T11:37:59.421Z,17676.00
2023-04-18T11:43:06.710Z,17748.00
2023-04-18T11:48:14.008Z,17568.00
2023-04-18T11:53:21.160Z,17640.00
2023-04-18T11:58:28.355Z,17532.00
2023-04-18T12:03:35.844Z,17496.00
2023-04-18T12:08:42.835Z,17424.00
2023-04-18T12:13:50.314Z,17424.00
2023-04-18T12:18:57.726Z,17496.00
2023-04-18T12:24:04.798Z,17568.00
2023-04-18T12:29:12.217Z,17640.00
2023-04-18T12:34:19.159Z,17496.00
2023-04-18T12:39:26.322Z,17460.00
2023-04-18T12:44:33.517Z,17352.00
2023-04-18T12:49:40.783Z,17352.00
2023-04-18T12:54:47.871Z,17424.00
2023-04-18T12:59:55.059Z,17388.00
2023-04-18T13:05:02.424Z,17352.00
2023-04-18T13:10:09.466Z,17316.00
2023-04-18T13:15:16.705Z,17352.00
2023-04-18T13:20:24.055Z,17496.00
2023-04-18T13:25:31.227Z,17856.00
2023-04-18T13:30:38.427Z,18144.00
2023-04-18T13:35:45.743Z,19872.00
2023-04-18T13:41:04.397Z,18144.00
2023-04-18T13:46:00.181Z,18288.00
2023-04-18T13:51:07.390Z,17676.00
2023-04-18T13:56:14.555Z,17424.00
2023-04-18T14:01:21.703Z,16560.00
2023-04-18T14:06:28.895Z,17892.00
2023-04-18T14:11:36.047Z,17568.00
2023-04-18T14:16:43.365Z,17892.00
2023-04-18T14:21:50.729Z,17784.00
2023-04-18T14:26:57.790Z,18576.00
2023-04-18T14:32:04.975Z,20916.00
2023-04-18T14:37:12.243Z,22716.00
2023-04-18T14:42:19.371Z,18936.00
2023-04-18T14:47:26.684Z,16956.00
2023-04-18T14:52:33.864Z,18576.00
2023-04-18T14:57:41.105Z,18396.00
2023-04-18T15:02:48.606Z,18612.00
2023-04-18T15:07:55.516Z,18864.00
2023-04-18T15:13:02.695Z,21600.00
2023-04-18T15:18:10.062Z,21060.00
2023-04-18T15:23:17.153Z,19908.00
2023-04-18T15:28:24.326Z,18684.00
2023-04-18T15:33:31.517Z,21312.00
2023-04-18T15:38:38.794Z,20196.00
2023-04-18T15:43:45.984Z,20952.00
2023-04-18T15:48:53.178Z,20160.00
2023-04-18T15:54:00.409Z,20700.00
2023-04-18T15:59:07.559Z,19764.00
2023-04-18T16:04:15.456Z,15660.00
2023-04-18T16:09:22.349Z,14652.00
2023-04-18T16:14:29.494Z,16992.00
2023-04-18T16:19:36.697Z,14940.00
2023-04-18T16:24:43.893Z,13968.00
2023-04-18T16:29:51.068Z,13392.00
2023-04-18T16:34:58.332Z,13104.00
2023-04-18T16:40:05.627Z,13392.00
2023-04-18T16:45:12.844Z,15408.00
2023-04-18T16:50:20.081Z,15264.00
2023-04-18T16:55:27.478Z,12708.00
2023-04-18T17:00:36.948Z,14076.00
2023-04-18T17:05:41.970Z,14076.00
2023-04-18T17:10:49.161Z,12816.00
2023-04-18T17:15:56.386Z,11556.00
2023-04-18T17:21:03.577Z,11556.00
2023-04-18T17:26:10.831Z,10332.00
2023-04-18T17:31:18.309Z,9720.00
2023-04-18T17:36:25.887Z,9360.00
2023-04-18T17:41:33.649Z,9540.00
2023-04-18T17:46:41.110Z,7668.00
2023-04-18T17:51:48.621Z,7272.00
2023-04-18T17:56:56.366Z,4968.00
2023-04-18T18:02:04.088Z,3384.00
2023-04-18T18:07:12.809Z,3852.00
2023-04-18T18:12:20.180Z,1692.00
2023-04-18T18:17:27.744Z,1116.00
2023-04-18T18:22:35.338Z,468.00
2023-04-18T18:27:42.832Z,180.00
2023-04-18T18:32:50.063Z,36.00
2023-04-18T18:37:57.565Z,-252.00
2023-04-18T18:43:06.286Z,-324.00
2023-04-18T18:48:13.883Z,-324.00
2023-04-18T18:53:21.438Z,-324.00
2023-04-18T18:58:29.192Z,-360.00
2023-04-18T19:03:36.966Z,7992.00
2023-04-18T19:08:45.404Z,7668.00
2023-04-18T19:13:53.047Z,7596.00
2023-04-18T19:19:00.634Z,7596.00
2023-04-18T19:24:08.356Z,7596.00
2023-04-18T19:29:16.177Z,7596.00
2023-04-18T19:34:24.091Z,7704.00
2023-04-18T19:39:31.817Z,7704.00
2023-04-18T19:44:39.448Z,7704.00
2023-04-18T19:49:47.159Z,7740.00
2023-04-18T19:54:54.691Z,7668.00
2023-04-18T20:00:02.218Z,7776.00
2023-04-18T20:05:10.144Z,7776.00
2023-04-18T20:10:17.390Z,7704.00
2023-04-18T20:15:25.055Z,7884.00
2023-04-18T20:20:33.255Z,7848.00
2023-04-18T20:25:41.762Z,7740.00
2023-04-18T20:30:49.535Z,7740.00
2023-04-18T20:35:56.846Z,7668.00
2023-04-18T20:41:04.318Z,7920.00
2023-04-18T20:46:12.899Z,7632.00
2023-04-18T20:51:20.078Z,7596.00
2023-04-18T20:56:27.501Z,7452.00
2023-04-18T21:01:36.850Z,7488.00
2023-04-18T21:06:42.028Z,7668.00
2023-04-18T21:11:49.308Z,7668.00
2023-04-18T21:16:56.657Z,7092.00
2023-04-18T21:22:03.920Z,7380.00
2023-04-18T21:27:11.183Z,7488.00
2023-04-18T21:32:18.428Z,7416.00
2023-04-18T21:37:25.573Z,7452.00
2023-04-18T21:42:32.832Z,7344.00
2023-04-18T21:47:40.174Z,7488.00
2023-04-18T21:52:47.300Z,7380.00
2023-04-18T21:57:54.525Z,7308.00
2023-04-18T22:03:02.297Z,-360.00
2023-04-18T22:08:09.672Z,-360.00
2023-04-18T22:13:17.360Z,-396.00
2023-04-18T22:18:25.016Z,-324.00
2023-04-18T22:23:35.585Z,-360.00
2023-04-18T22:28:43.216Z,-360.00
2023-04-18T22:33:56.370Z,-360.00
2023-04-18T22:39:28.546Z,-360.00
2023-04-18T22:44:27.246Z,-360.00
2023-04-18T22:50:12.893Z,-324.00
2023-04-18T22:55:27.112Z,-360.00
2023-04-18T23:00:36.520Z,-360.00
2023-04-18T23:05:44.725Z,-396.00
2023-04-18T23:11:01.563Z,-360.00
2023-04-18T23:16:09.367Z,-360.00
2023-04-18T23:21:39.807Z,-360.00
2023-04-18T23:26:47.807Z,-360.00
2023-04-18T23:31:55.836Z,-360.00
2023-04-18T23:37:28.444Z,-360.00
2023-04-18T23:42:42.392Z,-360.00
2023-04-18T23:49:15.688Z,-360.00
2023-04-18T23:53:24.142Z,-396.00
2023-04-18T23:58:40.780Z,-360.00
